sensor_id;sensor_type;location;lat;lon;timestamp;P1;durP1;ratioP1;P2;durP2;ratioP2
11691;SDS011;33659;42.672;23.354;2024-02-16T00:01:47;18.27;;;10.40;;
11691;SDS011;33659;42.672;23.354;2024-02-16T00:04:23;15.93;;;9.50;;
11691;SDS011;33659;42.672;23.354;2024-02-16T00:06:50;14.60;;;8.63;;
11691;SDS011;33659;42.672;23.354;2024-02-16T00:09:17;15.07;;;8.80;;
11691;SDS011;33659;42.672;23.354;2024-02-16T00:11:43;13.90;;;8.20;;
11691;SDS011;33659;42.672;23.354;2024-02-16T00:14:12;16.57;;;9.13;;
11691;SDS011;33659;42.672;23.354;2024-02-16T00:16:39;13.63;;;8.87;;
11691;SDS011;33659;42.672;23.354;2024-02-16T00:19:05;14.40;;;8.67;;
11691;SDS011;33659;42.672;23.354;2024-02-16T00:21:33;16.73;;;9.67;;
11691;SDS011;33659;42.672;23.354;2024-02-16T00:24:00;14.37;;;8.73;;
11691;SDS011;33659;42.672;23.354;2024-02-16T00:26:28;16.60;;;9.43;;
11691;SDS011;33659;42.672;23.354;2024-02-16T00:28:55;13.33;;;7.93;;
11691;SDS011;33659;42.672;23.354;2024-02-16T00:31:21;13.57;;;9.40;;
11691;SDS011;33659;42.672;23.354;2024-02-16T00:33:48;13.67;;;8.37;;
11691;SDS011;33659;42.672;23.354;2024-02-16T00:36:14;14.80;;;8.10;;
11691;SDS011;33659;42.672;23.354;2024-02-16T00:38:43;10.00;;;8.03;;
11691;SDS011;33659;42.672;23.354;2024-02-16T00:41:16;11.53;;;8.23;;
11691;SDS011;33659;42.672;23.354;2024-02-16T00:43:43;13.00;;;7.40;;
11691;SDS011;33659;42.672;23.354;2024-02-16T00:46:10;10.63;;;6.93;;
11691;SDS011;33659;42.672;23.354;2024-02-16T00:48:37;15.47;;;7.80;;
11691;SDS011;33659;42.672;23.354;2024-02-16T00:51:04;15.80;;;8.17;;
11691;SDS011;33659;42.672;23.354;2024-02-16T00:53:31;13.03;;;7.43;;
11691;SDS011;33659;42.672;23.354;2024-02-16T00:55:59;12.90;;;7.23;;
11691;SDS011;33659;42.672;23.354;2024-02-16T00:58:25;13.50;;;7.10;;
11691;SDS011;33659;42.672;23.354;2024-02-16T01:00:52;12.57;;;7.83;;
11691;SDS011;33659;42.672;23.354;2024-02-16T01:03:18;9.23;;;6.13;;
11691;SDS011;33659;42.672;23.354;2024-02-16T01:05:47;15.67;;;7.30;;
11691;SDS011;33659;42.672;23.354;2024-02-16T01:08:14;10.93;;;7.43;;
11691;SDS011;33659;42.672;23.354;2024-02-16T01:10:40;12.33;;;6.73;;
11691;SDS011;33659;42.672;23.354;2024-02-16T01:13:09;8.20;;;6.23;;
11691;SDS011;33659;42.672;23.354;2024-02-16T01:15:36;11.07;;;7.23;;
11691;SDS011;33659;42.672;23.354;2024-02-16T01:18:03;8.57;;;6.77;;
11691;SDS011;33659;42.672;23.354;2024-02-16T01:20:30;10.13;;;6.97;;
11691;SDS011;33659;42.672;23.354;2024-02-16T01:22:56;9.40;;;6.23;;
11691;SDS011;33659;42.672;23.354;2024-02-16T01:25:23;9.57;;;5.90;;
11691;SDS011;33659;42.672;23.354;2024-02-16T01:27:50;9.80;;;6.43;;
11691;SDS011;33659;42.672;23.354;2024-02-16T01:30:18;11.10;;;7.27;;
11691;SDS011;33659;42.672;23.354;2024-02-16T01:32:45;10.87;;;6.87;;
11691;SDS011;33659;42.672;23.354;2024-02-16T01:35:12;9.27;;;6.13;;
11691;SDS011;33659;42.672;23.354;2024-02-16T01:37:39;10.47;;;6.67;;
11691;SDS011;33659;42.672;23.354;2024-02-16T01:40:07;8.70;;;6.10;;
11691;SDS011;33659;42.672;23.354;2024-02-16T01:42:38;9.40;;;6.50;;
11691;SDS011;33659;42.672;23.354;2024-02-16T01:45:06;11.43;;;6.80;;
11691;SDS011;33659;42.672;23.354;2024-02-16T01:47:35;9.70;;;6.90;;
11691;SDS011;33659;42.672;23.354;2024-02-16T01:50:02;9.07;;;6.20;;
11691;SDS011;33659;42.672;23.354;2024-02-16T01:52:29;9.87;;;6.83;;
11691;SDS011;33659;42.672;23.354;2024-02-16T01:54:59;9.60;;;6.93;;
11691;SDS011;33659;42.672;23.354;2024-02-16T01:57:27;10.23;;;6.77;;
11691;SDS011;33659;42.672;23.354;2024-02-16T01:59:54;11.33;;;7.40;;
11691;SDS011;33659;42.672;23.354;2024-02-16T02:02:21;12.60;;;8.07;;
11691;SDS011;33659;42.672;23.354;2024-02-16T02:04:49;14.47;;;7.87;;
11691;SDS011;33659;42.672;23.354;2024-02-16T02:07:16;11.13;;;7.63;;
11691;SDS011;33659;42.672;23.354;2024-02-16T02:09:43;13.80;;;8.10;;
11691;SDS011;33659;42.672;23.354;2024-02-16T02:12:09;13.63;;;8.10;;
11691;SDS011;33659;42.672;23.354;2024-02-16T02:14:36;11.67;;;8.17;;
11691;SDS011;33659;42.672;23.354;2024-02-16T02:17:03;13.17;;;8.13;;
11691;SDS011;33659;42.672;23.354;2024-02-16T02:19:30;18.50;;;7.47;;
11691;SDS011;33659;42.672;23.354;2024-02-16T02:21:58;11.97;;;6.87;;
11691;SDS011;33659;42.672;23.354;2024-02-16T02:24:27;11.13;;;7.90;;
11691;SDS011;33659;42.672;23.354;2024-02-16T02:26:54;13.47;;;7.73;;
11691;SDS011;33659;42.672;23.354;2024-02-16T02:29:22;13.10;;;7.83;;
11691;SDS011;33659;42.672;23.354;2024-02-16T02:31:49;11.10;;;7.70;;
11691;SDS011;33659;42.672;23.354;2024-02-16T02:34:15;11.83;;;7.53;;
11691;SDS011;33659;42.672;23.354;2024-02-16T02:36:42;9.23;;;6.13;;
11691;SDS011;33659;42.672;23.354;2024-02-16T02:39:09;8.63;;;6.40;;
11691;SDS011;33659;42.672;23.354;2024-02-16T02:41:37;9.53;;;6.17;;
11691;SDS011;33659;42.672;23.354;2024-02-16T02:44:04;8.50;;;5.83;;
11691;SDS011;33659;42.672;23.354;2024-02-16T02:46:31;10.13;;;6.10;;
11691;SDS011;33659;42.672;23.354;2024-02-16T02:48:57;10.60;;;6.13;;
11691;SDS011;33659;42.672;23.354;2024-02-16T02:51:24;9.03;;;6.00;;
11691;SDS011;33659;42.672;23.354;2024-02-16T02:53:52;9.50;;;5.90;;
11691;SDS011;33659;42.672;23.354;2024-02-16T02:56:18;5.97;;;4.87;;
11691;SDS011;33659;42.672;23.354;2024-02-16T02:58:46;7.67;;;5.33;;
11691;SDS011;33659;42.672;23.354;2024-02-16T03:01:13;8.40;;;5.33;;
11691;SDS011;33659;42.672;23.354;2024-02-16T03:03:40;7.40;;;5.43;;
11691;SDS011;33659;42.672;23.354;2024-02-16T03:06:08;9.13;;;5.60;;
11691;SDS011;33659;42.672;23.354;2024-02-16T03:08:34;7.50;;;5.50;;
11691;SDS011;33659;42.672;23.354;2024-02-16T03:11:01;7.13;;;5.30;;
11691;SDS011;33659;42.672;23.354;2024-02-16T03:13:29;7.33;;;5.33;;
11691;SDS011;33659;42.672;23.354;2024-02-16T03:15:57;9.00;;;6.20;;
11691;SDS011;33659;42.672;23.354;2024-02-16T03:18:24;11.43;;;6.10;;
11691;SDS011;33659;42.672;23.354;2024-02-16T03:20:51;8.90;;;6.13;;
11691;SDS011;33659;42.672;23.354;2024-02-16T03:23:17;9.10;;;6.00;;
11691;SDS011;33659;42.672;23.354;2024-02-16T03:25:44;7.83;;;5.17;;
11691;SDS011;33659;42.672;23.354;2024-02-16T03:28:11;6.27;;;4.57;;
11691;SDS011;33659;42.672;23.354;2024-02-16T03:30:38;4.53;;;3.90;;
11691;SDS011;33659;42.672;23.354;2024-02-16T03:33:06;5.17;;;4.10;;
11691;SDS011;33659;42.672;23.354;2024-02-16T03:35:33;6.80;;;4.87;;
11691;SDS011;33659;42.672;23.354;2024-02-16T03:38:00;7.73;;;4.67;;
11691;SDS011;33659;42.672;23.354;2024-02-16T03:40:27;8.30;;;5.10;;
11691;SDS011;33659;42.672;23.354;2024-02-16T03:42:54;7.30;;;4.90;;
11691;SDS011;33659;42.672;23.354;2024-02-16T03:45:21;8.20;;;5.43;;
11691;SDS011;33659;42.672;23.354;2024-02-16T03:47:48;6.70;;;5.63;;
11691;SDS011;33659;42.672;23.354;2024-02-16T03:50:19;10.47;;;5.57;;
11691;SDS011;33659;42.672;23.354;2024-02-16T03:52:46;10.83;;;6.43;;
11691;SDS011;33659;42.672;23.354;2024-02-16T03:55:13;12.17;;;6.43;;
11691;SDS011;33659;42.672;23.354;2024-02-16T03:57:40;9.77;;;5.70;;
11691;SDS011;33659;42.672;23.354;2024-02-16T04:00:07;7.87;;;5.43;;
11691;SDS011;33659;42.672;23.354;2024-02-16T04:02:34;13.83;;;6.57;;
11691;SDS011;33659;42.672;23.354;2024-02-16T04:05:02;9.57;;;5.97;;
11691;SDS011;33659;42.672;23.354;2024-02-16T04:07:30;7.27;;;5.70;;
11691;SDS011;33659;42.672;23.354;2024-02-16T04:09:57;10.03;;;6.07;;
11691;SDS011;33659;42.672;23.354;2024-02-16T04:12:25;12.70;;;6.70;;
11691;SDS011;33659;42.672;23.354;2024-02-16T04:14:52;11.60;;;7.50;;
11691;SDS011;33659;42.672;23.354;2024-02-16T04:17:18;11.43;;;6.80;;
11691;SDS011;33659;42.672;23.354;2024-02-16T04:19:45;10.50;;;6.93;;
11691;SDS011;33659;42.672;23.354;2024-02-16T04:22:12;9.83;;;6.97;;
11691;SDS011;33659;42.672;23.354;2024-02-16T04:24:40;7.67;;;6.27;;
11691;SDS011;33659;42.672;23.354;2024-02-16T04:27:06;12.07;;;6.90;;
11691;SDS011;33659;42.672;23.354;2024-02-16T04:29:33;12.70;;;7.77;;
11691;SDS011;33659;42.672;23.354;2024-02-16T04:32:00;12.67;;;7.97;;
11691;SDS011;33659;42.672;23.354;2024-02-16T04:34:26;11.90;;;7.00;;
11691;SDS011;33659;42.672;23.354;2024-02-16T04:36:53;10.27;;;7.17;;
11691;SDS011;33659;42.672;23.354;2024-02-16T04:39:19;12.67;;;7.27;;
11691;SDS011;33659;42.672;23.354;2024-02-16T04:41:47;13.07;;;8.47;;
11691;SDS011;33659;42.672;23.354;2024-02-16T04:44:14;13.63;;;8.57;;
11691;SDS011;33659;42.672;23.354;2024-02-16T04:46:41;12.67;;;8.33;;
11691;SDS011;33659;42.672;23.354;2024-02-16T04:49:07;15.93;;;9.63;;
11691;SDS011;33659;42.672;23.354;2024-02-16T04:51:34;15.57;;;10.03;;
11691;SDS011;33659;42.672;23.354;2024-02-16T04:54:04;12.73;;;9.63;;
11691;SDS011;33659;42.672;23.354;2024-02-16T04:56:31;15.83;;;9.03;;
11691;SDS011;33659;42.672;23.354;2024-02-16T04:58:59;17.47;;;9.70;;
11691;SDS011;33659;42.672;23.354;2024-02-16T05:01:25;17.27;;;10.53;;
11691;SDS011;33659;42.672;23.354;2024-02-16T05:03:53;23.27;;;10.73;;
11691;SDS011;33659;42.672;23.354;2024-02-16T05:06:20;21.80;;;11.03;;
11691;SDS011;33659;42.672;23.354;2024-02-16T05:08:48;18.37;;;10.57;;
11691;SDS011;33659;42.672;23.354;2024-02-16T05:11:15;18.53;;;11.27;;
11691;SDS011;33659;42.672;23.354;2024-02-16T05:13:41;18.93;;;11.47;;
11691;SDS011;33659;42.672;23.354;2024-02-16T05:16:10;19.77;;;11.17;;
11691;SDS011;33659;42.672;23.354;2024-02-16T05:18:37;20.40;;;11.13;;
11691;SDS011;33659;42.672;23.354;2024-02-16T05:21:05;21.80;;;11.30;;
11691;SDS011;33659;42.672;23.354;2024-02-16T05:23:32;18.63;;;10.80;;
11691;SDS011;33659;42.672;23.354;2024-02-16T05:25:59;20.00;;;11.37;;
11691;SDS011;33659;42.672;23.354;2024-02-16T05:28:26;21.93;;;11.77;;
11691;SDS011;33659;42.672;23.354;2024-02-16T05:30:52;21.03;;;12.63;;
11691;SDS011;33659;42.672;23.354;2024-02-16T05:33:20;15.90;;;10.57;;
11691;SDS011;33659;42.672;23.354;2024-02-16T05:35:48;23.63;;;11.77;;
11691;SDS011;33659;42.672;23.354;2024-02-16T05:38:19;27.40;;;12.70;;
11691;SDS011;33659;42.672;23.354;2024-02-16T05:40:57;26.90;;;12.83;;
11691;SDS011;33659;42.672;23.354;2024-02-16T05:43:24;24.83;;;12.03;;
11691;SDS011;33659;42.672;23.354;2024-02-16T05:45:50;18.93;;;10.80;;
11691;SDS011;33659;42.672;23.354;2024-02-16T05:48:17;20.70;;;11.60;;
11691;SDS011;33659;42.672;23.354;2024-02-16T05:50:46;17.70;;;11.47;;
11691;SDS011;33659;42.672;23.354;2024-02-16T05:53:12;16.47;;;11.50;;
11691;SDS011;33659;42.672;23.354;2024-02-16T05:55:39;18.60;;;11.33;;
11691;SDS011;33659;42.672;23.354;2024-02-16T05:58:05;18.07;;;10.90;;
11691;SDS011;33659;42.672;23.354;2024-02-16T06:00:33;13.47;;;9.80;;
11691;SDS011;33659;42.672;23.354;2024-02-16T06:03:00;19.93;;;9.93;;
11691;SDS011;33659;42.672;23.354;2024-02-16T06:05:27;14.20;;;8.53;;
11691;SDS011;33659;42.672;23.354;2024-02-16T06:07:55;13.83;;;7.83;;
11691;SDS011;33659;42.672;23.354;2024-02-16T06:10:24;14.50;;;7.93;;
11691;SDS011;33659;42.672;23.354;2024-02-16T06:12:51;14.07;;;8.77;;
11691;SDS011;33659;42.672;23.354;2024-02-16T06:15:17;23.43;;;8.73;;
11691;SDS011;33659;42.672;23.354;2024-02-16T06:17:44;15.63;;;9.13;;
11691;SDS011;33659;42.672;23.354;2024-02-16T06:20:11;19.00;;;8.97;;
11691;SDS011;33659;42.672;23.354;2024-02-16T06:22:38;17.33;;;9.67;;
11691;SDS011;33659;42.672;23.354;2024-02-16T06:25:07;13.43;;;8.70;;
11691;SDS011;33659;42.672;23.354;2024-02-16T06:27:34;17.77;;;9.63;;
11691;SDS011;33659;42.672;23.354;2024-02-16T06:30:02;20.83;;;10.13;;
11691;SDS011;33659;42.672;23.354;2024-02-16T06:32:30;19.53;;;9.47;;
11691;SDS011;33659;42.672;23.354;2024-02-16T06:34:57;16.40;;;9.67;;
11691;SDS011;33659;42.672;23.354;2024-02-16T06:37:23;13.80;;;9.90;;
11691;SDS011;33659;42.672;23.354;2024-02-16T06:39:51;16.60;;;10.00;;
11691;SDS011;33659;42.672;23.354;2024-02-16T06:42:19;22.87;;;10.73;;
11691;SDS011;33659;42.672;23.354;2024-02-16T06:44:45;15.27;;;9.97;;
11691;SDS011;33659;42.672;23.354;2024-02-16T06:47:12;19.83;;;10.23;;
11691;SDS011;33659;42.672;23.354;2024-02-16T06:49:38;22.00;;;10.60;;
11691;SDS011;33659;42.672;23.354;2024-02-16T06:52:05;24.53;;;11.17;;
11691;SDS011;33659;42.672;23.354;2024-02-16T06:54:34;24.27;;;11.50;;
11691;SDS011;33659;42.672;23.354;2024-02-16T06:57:01;27.57;;;11.37;;
11691;SDS011;33659;42.672;23.354;2024-02-16T06:59:29;20.27;;;11.77;;
11691;SDS011;33659;42.672;23.354;2024-02-16T07:01:56;18.97;;;12.83;;
11691;SDS011;33659;42.672;23.354;2024-02-16T07:04:22;24.30;;;12.57;;
11691;SDS011;33659;42.672;23.354;2024-02-16T07:06:49;20.30;;;12.00;;
11691;SDS011;33659;42.672;23.354;2024-02-16T07:09:15;24.30;;;11.37;;
11691;SDS011;33659;42.672;23.354;2024-02-16T07:11:42;20.97;;;10.43;;
11691;SDS011;33659;42.672;23.354;2024-02-16T07:14:11;21.27;;;11.40;;
11691;SDS011;33659;42.672;23.354;2024-02-16T07:16:39;23.30;;;12.17;;
11691;SDS011;33659;42.672;23.354;2024-02-16T07:19:06;20.80;;;10.03;;
11691;SDS011;33659;42.672;23.354;2024-02-16T07:21:32;19.07;;;10.10;;
11691;SDS011;33659;42.672;23.354;2024-02-16T07:23:59;18.67;;;10.37;;
11691;SDS011;33659;42.672;23.354;2024-02-16T07:26:26;16.57;;;9.10;;
11691;SDS011;33659;42.672;23.354;2024-02-16T07:28:54;12.47;;;8.63;;
11691;SDS011;33659;42.672;23.354;2024-02-16T07:31:21;16.23;;;8.60;;
11691;SDS011;33659;42.672;23.354;2024-02-16T07:33:49;12.53;;;8.00;;
11691;SDS011;33659;42.672;23.354;2024-02-16T07:36:15;14.80;;;8.93;;
11691;SDS011;33659;42.672;23.354;2024-02-16T07:38:44;11.47;;;7.53;;
11691;SDS011;33659;42.672;23.354;2024-02-16T07:41:11;8.33;;;6.60;;
11691;SDS011;33659;42.672;23.354;2024-02-16T07:43:37;12.63;;;7.30;;
11691;SDS011;33659;42.672;23.354;2024-02-16T07:46:04;12.20;;;6.97;;
11691;SDS011;33659;42.672;23.354;2024-02-16T07:48:33;11.73;;;7.27;;
11691;SDS011;33659;42.672;23.354;2024-02-16T07:51:01;15.10;;;7.63;;
11691;SDS011;33659;42.672;23.354;2024-02-16T07:53:28;11.47;;;8.00;;
11691;SDS011;33659;42.672;23.354;2024-02-16T07:55:55;14.23;;;6.97;;
11691;SDS011;33659;42.672;23.354;2024-02-16T07:58:23;11.07;;;6.83;;
11691;SDS011;33659;42.672;23.354;2024-02-16T08:00:50;13.77;;;8.00;;
11691;SDS011;33659;42.672;23.354;2024-02-16T08:03:17;11.80;;;7.17;;
11691;SDS011;33659;42.672;23.354;2024-02-16T08:05:44;10.77;;;7.10;;
11691;SDS011;33659;42.672;23.354;2024-02-16T08:08:12;15.30;;;7.77;;
11691;SDS011;33659;42.672;23.354;2024-02-16T08:10:39;14.23;;;7.90;;
11691;SDS011;33659;42.672;23.354;2024-02-16T08:13:05;14.13;;;8.40;;
11691;SDS011;33659;42.672;23.354;2024-02-16T08:15:32;14.63;;;8.10;;
11691;SDS011;33659;42.672;23.354;2024-02-16T08:17:59;17.03;;;8.30;;
11691;SDS011;33659;42.672;23.354;2024-02-16T08:20:25;13.20;;;7.80;;
11691;SDS011;33659;42.672;23.354;2024-02-16T08:22:52;12.37;;;7.27;;
11691;SDS011;33659;42.672;23.354;2024-02-16T08:25:20;17.77;;;7.47;;
11691;SDS011;33659;42.672;23.354;2024-02-16T08:27:47;12.57;;;7.53;;
11691;SDS011;33659;42.672;23.354;2024-02-16T08:30:14;10.40;;;7.90;;
11691;SDS011;33659;42.672;23.354;2024-02-16T08:32:41;13.53;;;8.13;;
11691;SDS011;33659;42.672;23.354;2024-02-16T08:35:08;15.23;;;8.57;;
11691;SDS011;33659;42.672;23.354;2024-02-16T08:37:34;20.70;;;9.07;;
11691;SDS011;33659;42.672;23.354;2024-02-16T08:40:01;18.77;;;10.07;;
11691;SDS011;33659;42.672;23.354;2024-02-16T08:42:30;19.90;;;10.70;;
11691;SDS011;33659;42.672;23.354;2024-02-16T08:44:57;15.00;;;10.10;;
11691;SDS011;33659;42.672;23.354;2024-02-16T08:47:25;22.10;;;10.03;;
11691;SDS011;33659;42.672;23.354;2024-02-16T08:49:52;27.87;;;10.90;;
11691;SDS011;33659;42.672;23.354;2024-02-16T08:52:18;28.57;;;12.90;;
11691;SDS011;33659;42.672;23.354;2024-02-16T08:54:45;24.90;;;13.70;;
11691;SDS011;33659;42.672;23.354;2024-02-16T08:57:11;24.53;;;14.63;;
11691;SDS011;33659;42.672;23.354;2024-02-16T08:59:39;29.50;;;14.10;;
11691;SDS011;33659;42.672;23.354;2024-02-16T09:02:06;27.87;;;14.80;;
11691;SDS011;33659;42.672;23.354;2024-02-16T09:04:33;26.20;;;15.30;;
11691;SDS011;33659;42.672;23.354;2024-02-16T09:07:00;25.03;;;15.20;;
11691;SDS011;33659;42.672;23.354;2024-02-16T09:09:26;24.70;;;14.07;;
11691;SDS011;33659;42.672;23.354;2024-02-16T09:11:53;20.00;;;10.37;;
11691;SDS011;33659;42.672;23.354;2024-02-16T09:14:20;13.67;;;9.43;;
11691;SDS011;33659;42.672;23.354;2024-02-16T09:16:49;16.40;;;10.17;;
11691;SDS011;33659;42.672;23.354;2024-02-16T09:19:17;16.10;;;10.53;;
11691;SDS011;33659;42.672;23.354;2024-02-16T09:21:44;11.90;;;9.13;;
11691;SDS011;33659;42.672;23.354;2024-02-16T09:24:11;17.27;;;9.07;;
11691;SDS011;33659;42.672;23.354;2024-02-16T09:26:42;13.67;;;8.50;;
11691;SDS011;33659;42.672;23.354;2024-02-16T09:29:11;11.50;;;7.50;;
11691;SDS011;33659;42.672;23.354;2024-02-16T09:31:39;9.00;;;5.40;;
11691;SDS011;33659;42.672;23.354;2024-02-16T09:34:07;6.83;;;4.40;;
11691;SDS011;33659;42.672;23.354;2024-02-16T09:36:34;7.27;;;4.50;;
11691;SDS011;33659;42.672;23.354;2024-02-16T09:39:01;5.63;;;4.70;;
11691;SDS011;33659;42.672;23.354;2024-02-16T09:41:28;9.17;;;6.67;;
11691;SDS011;33659;42.672;23.354;2024-02-16T09:43:55;5.53;;;4.23;;
11691;SDS011;33659;42.672;23.354;2024-02-16T09:46:21;3.97;;;3.30;;
11691;SDS011;33659;42.672;23.354;2024-02-16T09:48:50;9.03;;;3.60;;
11691;SDS011;33659;42.672;23.354;2024-02-16T09:51:20;4.70;;;3.50;;
11691;SDS011;33659;42.672;23.354;2024-02-16T09:53:49;6.10;;;3.80;;
11691;SDS011;33659;42.672;23.354;2024-02-16T09:56:18;6.90;;;4.00;;
11691;SDS011;33659;42.672;23.354;2024-02-16T09:58:45;5.57;;;4.30;;
11691;SDS011;33659;42.672;23.354;2024-02-16T10:01:17;4.23;;;3.80;;
11691;SDS011;33659;42.672;23.354;2024-02-16T10:03:45;6.53;;;4.10;;
11691;SDS011;33659;42.672;23.354;2024-02-16T10:06:12;10.83;;;4.60;;
11691;SDS011;33659;42.672;23.354;2024-02-16T10:08:48;7.20;;;4.37;;
11691;SDS011;33659;42.672;23.354;2024-02-16T10:11:15;5.38;;;4.30;;
11691;SDS011;33659;42.672;23.354;2024-02-16T10:13:53;10.48;;;5.47;;
11691;SDS011;33659;42.672;23.354;2024-02-16T10:16:20;9.50;;;4.90;;
11691;SDS011;33659;42.672;23.354;2024-02-16T10:18:47;5.07;;;4.00;;
11691;SDS011;33659;42.672;23.354;2024-02-16T10:21:13;4.90;;;4.13;;
11691;SDS011;33659;42.672;23.354;2024-02-16T10:23:56;6.30;;;4.47;;
11691;SDS011;33659;42.672;23.354;2024-02-16T10:26:23;3.83;;;3.33;;
11691;SDS011;33659;42.672;23.354;2024-02-16T10:28:51;7.17;;;4.57;;
11691;SDS011;33659;42.672;23.354;2024-02-16T10:31:22;5.87;;;4.53;;
11691;SDS011;33659;42.672;23.354;2024-02-16T10:33:54;6.27;;;4.97;;
11691;SDS011;33659;42.672;23.354;2024-02-16T10:36:23;9.77;;;5.63;;
11691;SDS011;33659;42.672;23.354;2024-02-16T10:38:53;6.03;;;4.80;;
11691;SDS011;33659;42.672;23.354;2024-02-16T10:41:22;7.47;;;5.10;;
11691;SDS011;33659;42.672;23.354;2024-02-16T10:43:54;9.07;;;5.40;;
11691;SDS011;33659;42.672;23.354;2024-02-16T10:46:21;8.18;;;5.22;;
11691;SDS011;33659;42.672;23.354;2024-02-16T10:48:48;6.95;;;4.93;;
11691;SDS011;33659;42.672;23.354;2024-02-16T10:51:15;5.30;;;4.80;;
11691;SDS011;33659;42.672;23.354;2024-02-16T10:53:46;7.18;;;4.22;;
11691;SDS011;33659;42.672;23.354;2024-02-16T10:56:13;5.20;;;4.50;;
11691;SDS011;33659;42.672;23.354;2024-02-16T10:58:41;5.72;;;4.13;;
11691;SDS011;33659;42.672;23.354;2024-02-16T11:01:08;4.47;;;3.28;;
11691;SDS011;33659;42.672;23.354;2024-02-16T11:03:37;3.80;;;3.40;;
11691;SDS011;33659;42.672;23.354;2024-02-16T11:06:11;5.75;;;3.15;;
11691;SDS011;33659;42.672;23.354;2024-02-16T11:08:42;4.40;;;3.45;;
11691;SDS011;33659;42.672;23.354;2024-02-16T11:11:08;3.70;;;3.00;;
11691;SDS011;33659;42.672;23.354;2024-02-16T11:13:37;5.55;;;3.00;;
11691;SDS011;33659;42.672;23.354;2024-02-16T11:16:07;6.07;;;3.10;;
11691;SDS011;33659;42.672;23.354;2024-02-16T11:18:42;3.42;;;3.10;;
11691;SDS011;33659;42.672;23.354;2024-02-16T11:21:11;6.38;;;3.25;;
11691;SDS011;33659;42.672;23.354;2024-02-16T11:23:38;3.40;;;3.10;;
11691;SDS011;33659;42.672;23.354;2024-02-16T11:26:08;4.80;;;3.25;;
11691;SDS011;33659;42.672;23.354;2024-02-16T11:28:37;4.90;;;3.53;;
11691;SDS011;33659;42.672;23.354;2024-02-16T11:31:06;4.35;;;3.60;;
11691;SDS011;33659;42.672;23.354;2024-02-16T11:33:34;3.72;;;3.17;;
11691;SDS011;33659;42.672;23.354;2024-02-16T11:36:01;3.95;;;3.20;;
11691;SDS011;33659;42.672;23.354;2024-02-16T11:38:30;4.63;;;3.20;;
11691;SDS011;33659;42.672;23.354;2024-02-16T11:40:59;6.38;;;3.42;;
11691;SDS011;33659;42.672;23.354;2024-02-16T11:43:27;4.65;;;3.10;;
11691;SDS011;33659;42.672;23.354;2024-02-16T11:45:54;3.30;;;3.00;;
11691;SDS011;33659;42.672;23.354;2024-02-16T11:48:22;3.88;;;3.35;;
11691;SDS011;33659;42.672;23.354;2024-02-16T11:50:58;9.15;;;2.97;;
11691;SDS011;33659;42.672;23.354;2024-02-16T11:53:25;4.25;;;2.90;;
11691;SDS011;33659;42.672;23.354;2024-02-16T11:55:52;4.13;;;3.40;;
11691;SDS011;33659;42.672;23.354;2024-02-16T11:58:19;4.00;;;2.70;;
11691;SDS011;33659;42.672;23.354;2024-02-16T12:00:46;3.25;;;2.95;;
11691;SDS011;33659;42.672;23.354;2024-02-16T12:03:17;4.57;;;3.40;;
11691;SDS011;33659;42.672;23.354;2024-02-16T12:05:50;3.83;;;3.33;;
11691;SDS011;33659;42.672;23.354;2024-02-16T12:08:18;4.20;;;3.33;;
11691;SDS011;33659;42.672;23.354;2024-02-16T12:10:46;4.82;;;3.45;;
11691;SDS011;33659;42.672;23.354;2024-02-16T12:13:14;5.35;;;3.63;;
11691;SDS011;33659;42.672;23.354;2024-02-16T12:15:43;3.58;;;3.28;;
11691;SDS011;33659;42.672;23.354;2024-02-16T12:18:10;3.88;;;3.47;;
11691;SDS011;33659;42.672;23.354;2024-02-16T12:20:37;4.75;;;3.25;;
11691;SDS011;33659;42.672;23.354;2024-02-16T12:23:14;3.17;;;2.75;;
11691;SDS011;33659;42.672;23.354;2024-02-16T12:25:40;5.93;;;3.20;;
11691;SDS011;33659;42.672;23.354;2024-02-16T12:28:07;5.95;;;3.38;;
11691;SDS011;33659;42.672;23.354;2024-02-16T12:30:34;4.28;;;3.00;;
11691;SDS011;33659;42.672;23.354;2024-02-16T12:33:02;4.60;;;3.70;;
11691;SDS011;33659;42.672;23.354;2024-02-16T12:35:29;5.30;;;3.63;;
11691;SDS011;33659;42.672;23.354;2024-02-16T12:37:55;4.93;;;3.75;;
11691;SDS011;33659;42.672;23.354;2024-02-16T12:40:24;6.88;;;3.25;;
11691;SDS011;33659;42.672;23.354;2024-02-16T12:42:51;4.95;;;3.75;;
11691;SDS011;33659;42.672;23.354;2024-02-16T12:45:19;4.10;;;3.72;;
11691;SDS011;33659;42.672;23.354;2024-02-16T12:47:45;4.82;;;3.83;;
11691;SDS011;33659;42.672;23.354;2024-02-16T12:50:12;5.05;;;4.10;;
11691;SDS011;33659;42.672;23.354;2024-02-16T12:52:39;5.78;;;3.90;;
11691;SDS011;33659;42.672;23.354;2024-02-16T12:55:05;5.47;;;4.00;;
11691;SDS011;33659;42.672;23.354;2024-02-16T12:57:36;5.20;;;4.15;;
11691;SDS011;33659;42.672;23.354;2024-02-16T13:00:03;4.50;;;3.80;;
11691;SDS011;33659;42.672;23.354;2024-02-16T13:02:30;6.72;;;3.92;;
11691;SDS011;33659;42.672;23.354;2024-02-16T13:04:57;3.85;;;3.50;;
11691;SDS011;33659;42.672;23.354;2024-02-16T13:07:24;5.30;;;3.80;;
11691;SDS011;33659;42.672;23.354;2024-02-16T13:09:51;4.20;;;3.55;;
11691;SDS011;33659;42.672;23.354;2024-02-16T13:12:18;4.85;;;3.50;;
11691;SDS011;33659;42.672;23.354;2024-02-16T13:14:49;5.95;;;3.80;;
11691;SDS011;33659;42.672;23.354;2024-02-16T13:17:15;5.28;;;3.50;;
11691;SDS011;33659;42.672;23.354;2024-02-16T13:19:43;5.38;;;3.63;;
11691;SDS011;33659;42.672;23.354;2024-02-16T13:22:10;4.90;;;3.40;;
11691;SDS011;33659;42.672;23.354;2024-02-16T13:24:36;4.13;;;3.42;;
11691;SDS011;33659;42.672;23.354;2024-02-16T13:27:03;3.50;;;3.20;;
11691;SDS011;33659;42.672;23.354;2024-02-16T13:29:30;4.07;;;3.67;;
11691;SDS011;33659;42.672;23.354;2024-02-16T13:31:58;4.05;;;3.15;;
11691;SDS011;33659;42.672;23.354;2024-02-16T13:34:25;3.85;;;3.25;;
11691;SDS011;33659;42.672;23.354;2024-02-16T13:36:52;3.55;;;3.15;;
11691;SDS011;33659;42.672;23.354;2024-02-16T13:39:18;4.80;;;3.75;;
11691;SDS011;33659;42.672;23.354;2024-02-16T13:41:47;4.97;;;3.53;;
11691;SDS011;33659;42.672;23.354;2024-02-16T13:44:16;7.38;;;3.80;;
11691;SDS011;33659;42.672;23.354;2024-02-16T13:46:42;3.35;;;3.05;;
11691;SDS011;33659;42.672;23.354;2024-02-16T13:49:14;3.70;;;3.08;;
11691;SDS011;33659;42.672;23.354;2024-02-16T13:51:40;7.18;;;3.80;;
11691;SDS011;33659;42.672;23.354;2024-02-16T13:54:07;4.40;;;2.97;;
11691;SDS011;33659;42.672;23.354;2024-02-16T13:56:34;5.32;;;3.88;;
11691;SDS011;33659;42.672;23.354;2024-02-16T13:59:03;4.97;;;3.25;;
11691;SDS011;33659;42.672;23.354;2024-02-16T14:01:32;4.00;;;3.60;;
11691;SDS011;33659;42.672;23.354;2024-02-16T14:03:59;5.35;;;3.60;;
11691;SDS011;33659;42.672;23.354;2024-02-16T14:06:27;4.47;;;3.60;;
11691;SDS011;33659;42.672;23.354;2024-02-16T14:08:53;6.55;;;3.10;;
11691;SDS011;33659;42.672;23.354;2024-02-16T14:11:21;3.72;;;3.13;;
11691;SDS011;33659;42.672;23.354;2024-02-16T14:13:47;5.30;;;3.13;;
11691;SDS011;33659;42.672;23.354;2024-02-16T14:16:14;5.30;;;3.00;;
11691;SDS011;33659;42.672;23.354;2024-02-16T14:18:41;5.82;;;3.25;;
11691;SDS011;33659;42.672;23.354;2024-02-16T14:21:08;4.13;;;3.70;;
11691;SDS011;33659;42.672;23.354;2024-02-16T14:23:36;6.40;;;2.83;;
11691;SDS011;33659;42.672;23.354;2024-02-16T14:26:03;3.45;;;3.15;;
11691;SDS011;33659;42.672;23.354;2024-02-16T14:28:30;5.57;;;4.60;;